Terminal Aerodrome Forecast
Issued by NWS

Home | Current Version | Previous Version | Text Only | Print | Product List | Glossary On
Versions: 1 2 3 4 5 6 7 8 9 10 11 12 13 14 15 16 17 18 19 20 21 22 23 24 25 26 27 28 29 30 31 32
000
FTPQ31 PGUM 292300 RRA
TAFPQ
TAF

PGSN 292346Z 3000/3024 08022G35KT 6SM -SHRA SCT012 SCT035 BKN100
      TEMPO 3000/3003 3SM +SHRA SCT010 BKN025
     FM300600 12022G35KT 5SM SHRA SCT012 BKN030 OVC080
     FM301600 16015G28KT 6SM SHRA SCT012 BKN035 BKN080=

USA.gov is the U.S. government's official web portal to all federal, state and local government web resources and services.